Impacts TAF Board INFO
FOR SITUATIONAL AWARENESS. NOT TO BE USED FOR FLIGHT PLANNING PURPOSES.
IDs:

KLGA - New York/La Guardia, NY, US

Issued at 1431 UTC 20 Jan 2018
Updated at 1707 UTC 20 Jan 2018
Potential Impact None Slight Moderate High
Time1651Z 20/18Z 20/19Z 20/20Z 20/21Z 20/22Z 20/23Z 21/00Z 21/01Z 21/02Z 21/03Z 21/04Z 21/05Z 21/06Z>>
Type OBS PRVL PRVL PRVL PRVL PRVL PRVL PRVL PRVL PRVL PRVL PRVL PRVL PRVL
VIS 10 >6 >6 >6 >6 >6 >6 >6 >6 >6 >6 >6 >6 >6
CIG 250 250 250 250 250 250 -- -- -- -- -- -- -- --
Cover BKN BKN BKN BKN BKN BKN FEW FEW FEW FEW FEW FEW FEW FEW
FltCat VFR VFR VFR VFR VFR VFR VFR VFR VFR VFR VFR VFR VFR VFR
WX -- -- -- -- -- -- -- -- -- -- -- -- -- --
WDir 270 240 240 240 240 240 260 260 260 260 260 260 260 260
WSpd 12 15 15 15 15 15 8 8 8 8 8 8 8 8
WGst -- 22 22 22 22 22 -- -- -- -- -- -- -- --

Raw TAF
KLGA 201431Z 2015/2118 24015G22KT P6SM BKN250
  FM202300 26008KT P6SM FEW200
  FM210700 29005KT P6SM FEW020 SCT200
  FM211500 31011KT P6SM SCT020 SCT200


Raw METAR
KLGA 201651Z 27012KT 10SM BKN250 11/M04 A2986 RMK AO2 PK WND 24027/1602 SLP112 T01061044
KLGA 201551Z 25009G15KT 10SM BKN250 09/M05 A2989 RMK AO2 SLP120 T00891050
KLGA 201451Z 23014G19KT 10SM BKN250 08/M05 A2990 RMK AO2 SLP126 T00781050 53014

METAR Board
Radar Display
Forecast Discussion

FOR SITUATIONAL AWARENESS. NOT TO BE USED FOR FLIGHT PLANNING PURPOSES.